sensor_id;sensor_type;location;lat;lon;timestamp;P1;durP1;ratioP1;P2;durP2;ratioP2
8177;SDS011;4130;48.740;9.132;2023-12-20T00:01:41;1.00;;;1.00;;
8177;SDS011;4130;48.740;9.132;2023-12-20T00:04:09;0.93;;;0.93;;
8177;SDS011;4130;48.740;9.132;2023-12-20T00:06:36;1.00;;;1.00;;
8177;SDS011;4130;48.740;9.132;2023-12-20T00:09:03;0.70;;;0.70;;
8177;SDS011;4130;48.740;9.132;2023-12-20T00:11:30;0.70;;;0.70;;
8177;SDS011;4130;48.740;9.132;2023-12-20T00:13:56;0.70;;;0.70;;
8177;SDS011;4130;48.740;9.132;2023-12-20T00:16:23;0.80;;;0.80;;
8177;SDS011;4130;48.740;9.132;2023-12-20T00:18:50;1.10;;;1.00;;
8177;SDS011;4130;48.740;9.132;2023-12-20T00:21:18;0.90;;;0.90;;
8177;SDS011;4130;48.740;9.132;2023-12-20T00:23:45;0.90;;;0.90;;
8177;SDS011;4130;48.740;9.132;2023-12-20T00:26:12;1.63;;;0.90;;
8177;SDS011;4130;48.740;9.132;2023-12-20T00:28:39;0.43;;;0.43;;
8177;SDS011;4130;48.740;9.132;2023-12-20T00:31:06;0.73;;;0.73;;
8177;SDS011;4130;48.740;9.132;2023-12-20T00:33:33;1.00;;;0.80;;
8177;SDS011;4130;48.740;9.132;2023-12-20T00:35:59;1.33;;;0.60;;
8177;SDS011;4130;48.740;9.132;2023-12-20T00:38:42;0.90;;;0.90;;
8177;SDS011;4130;48.740;9.132;2023-12-20T00:41:09;0.80;;;0.80;;
8177;SDS011;4130;48.740;9.132;2023-12-20T00:43:35;0.60;;;0.60;;
8177;SDS011;4130;48.740;9.132;2023-12-20T00:46:05;1.23;;;0.93;;
8177;SDS011;4130;48.740;9.132;2023-12-20T00:48:32;0.63;;;0.50;;
8177;SDS011;4130;48.740;9.132;2023-12-20T00:51:01;0.70;;;0.70;;
8177;SDS011;4130;48.740;9.132;2023-12-20T00:53:28;0.60;;;0.60;;
8177;SDS011;4130;48.740;9.132;2023-12-20T00:55:57;0.60;;;0.60;;
8177;SDS011;4130;48.740;9.132;2023-12-20T00:58:26;0.60;;;0.60;;
8177;SDS011;4130;48.740;9.132;2023-12-20T01:00:54;0.93;;;0.60;;
8177;SDS011;4130;48.740;9.132;2023-12-20T01:03:20;0.70;;;0.70;;
8177;SDS011;4130;48.740;9.132;2023-12-20T01:05:51;0.80;;;0.80;;
8177;SDS011;4130;48.740;9.132;2023-12-20T01:08:21;2.23;;;0.60;;
8177;SDS011;4130;48.740;9.132;2023-12-20T01:10:48;0.60;;;0.60;;
8177;SDS011;4130;48.740;9.132;2023-12-20T01:13:16;0.80;;;0.77;;
8177;SDS011;4130;48.740;9.132;2023-12-20T01:15:43;0.63;;;0.63;;
8177;SDS011;4130;48.740;9.132;2023-12-20T01:18:10;0.70;;;0.70;;
8177;SDS011;4130;48.740;9.132;2023-12-20T01:20:37;0.80;;;0.80;;
8177;SDS011;4130;48.740;9.132;2023-12-20T01:23:15;0.70;;;0.70;;
8177;SDS011;4130;48.740;9.132;2023-12-20T01:25:42;0.70;;;0.70;;
8177;SDS011;4130;48.740;9.132;2023-12-20T01:28:10;1.50;;;0.73;;
8177;SDS011;4130;48.740;9.132;2023-12-20T01:30:38;0.60;;;0.60;;
8177;SDS011;4130;48.740;9.132;2023-12-20T01:33:05;0.60;;;0.60;;
8177;SDS011;4130;48.740;9.132;2023-12-20T01:35:32;0.70;;;0.70;;
8177;SDS011;4130;48.740;9.132;2023-12-20T01:37:58;0.77;;;0.77;;
8177;SDS011;4130;48.740;9.132;2023-12-20T01:40:25;0.83;;;0.83;;
8177;SDS011;4130;48.740;9.132;2023-12-20T01:42:58;0.70;;;0.70;;
8177;SDS011;4130;48.740;9.132;2023-12-20T01:45:26;0.80;;;0.80;;
8177;SDS011;4130;48.740;9.132;2023-12-20T01:47:54;0.53;;;0.53;;
8177;SDS011;4130;48.740;9.132;2023-12-20T01:50:23;0.90;;;0.90;;
8177;SDS011;4130;48.740;9.132;2023-12-20T01:52:50;0.77;;;0.77;;
8177;SDS011;4130;48.740;9.132;2023-12-20T01:55:18;0.73;;;0.73;;
8177;SDS011;4130;48.740;9.132;2023-12-20T01:57:45;0.60;;;0.60;;
8177;SDS011;4130;48.740;9.132;2023-12-20T02:00:16;0.87;;;0.87;;
8177;SDS011;4130;48.740;9.132;2023-12-20T02:02:46;0.70;;;0.70;;
8177;SDS011;4130;48.740;9.132;2023-12-20T02:05:16;0.40;;;0.40;;
8177;SDS011;4130;48.740;9.132;2023-12-20T02:07:43;0.77;;;0.77;;
8177;SDS011;4130;48.740;9.132;2023-12-20T02:10:12;0.50;;;0.50;;
8177;SDS011;4130;48.740;9.132;2023-12-20T02:12:40;0.47;;;0.47;;
8177;SDS011;4130;48.740;9.132;2023-12-20T02:15:07;0.63;;;0.63;;
8177;SDS011;4130;48.740;9.132;2023-12-20T02:17:36;0.83;;;0.53;;
8177;SDS011;4130;48.740;9.132;2023-12-20T02:20:25;0.60;;;0.60;;
8177;SDS011;4130;48.740;9.132;2023-12-20T02:22:53;0.40;;;0.40;;
8177;SDS011;4130;48.740;9.132;2023-12-20T02:25:21;0.63;;;0.50;;
8177;SDS011;4130;48.740;9.132;2023-12-20T02:27:48;0.60;;;0.60;;
8177;SDS011;4130;48.740;9.132;2023-12-20T02:30:18;1.03;;;0.70;;
8177;SDS011;4130;48.740;9.132;2023-12-20T02:32:44;0.97;;;0.60;;
8177;SDS011;4130;48.740;9.132;2023-12-20T02:35:11;0.50;;;0.50;;
8177;SDS011;4130;48.740;9.132;2023-12-20T02:37:38;0.40;;;0.40;;
8177;SDS011;4130;48.740;9.132;2023-12-20T02:40:07;0.60;;;0.60;;
8177;SDS011;4130;48.740;9.132;2023-12-20T02:42:34;0.80;;;0.80;;
8177;SDS011;4130;48.740;9.132;2023-12-20T02:45:01;1.10;;;0.60;;
8177;SDS011;4130;48.740;9.132;2023-12-20T02:47:28;0.50;;;0.47;;
8177;SDS011;4130;48.740;9.132;2023-12-20T02:49:56;0.50;;;0.50;;
8177;SDS011;4130;48.740;9.132;2023-12-20T02:52:23;0.40;;;0.40;;
8177;SDS011;4130;48.740;9.132;2023-12-20T02:57:29;0.60;;;0.60;;
8177;SDS011;4130;48.740;9.132;2023-12-20T02:59:57;0.60;;;0.60;;
8177;SDS011;4130;48.740;9.132;2023-12-20T03:02:24;0.70;;;0.70;;
8177;SDS011;4130;48.740;9.132;2023-12-20T03:04:50;0.60;;;0.60;;
8177;SDS011;4130;48.740;9.132;2023-12-20T03:07:17;0.50;;;0.50;;
8177;SDS011;4130;48.740;9.132;2023-12-20T03:09:59;0.53;;;0.53;;
8177;SDS011;4130;48.740;9.132;2023-12-20T03:12:26;0.60;;;0.60;;
8177;SDS011;4130;48.740;9.132;2023-12-20T03:14:54;0.33;;;0.33;;
8177;SDS011;4130;48.740;9.132;2023-12-20T03:17:21;0.40;;;0.40;;
8177;SDS011;4130;48.740;9.132;2023-12-20T03:19:48;0.40;;;0.40;;
8177;SDS011;4130;48.740;9.132;2023-12-20T03:22:15;0.50;;;0.50;;
8177;SDS011;4130;48.740;9.132;2023-12-20T03:24:45;0.43;;;0.43;;
8177;SDS011;4130;48.740;9.132;2023-12-20T03:27:14;0.30;;;0.30;;
8177;SDS011;4130;48.740;9.132;2023-12-20T03:29:41;0.30;;;0.30;;
8177;SDS011;4130;48.740;9.132;2023-12-20T03:32:09;0.63;;;0.20;;
8177;SDS011;4130;48.740;9.132;2023-12-20T03:34:36;0.40;;;0.40;;
8177;SDS011;4130;48.740;9.132;2023-12-20T03:37:03;0.80;;;0.50;;
8177;SDS011;4130;48.740;9.132;2023-12-20T03:39:30;0.30;;;0.30;;
8177;SDS011;4130;48.740;9.132;2023-12-20T03:41:59;0.67;;;0.47;;
8177;SDS011;4130;48.740;9.132;2023-12-20T03:44:25;0.10;;;0.10;;
8177;SDS011;4130;48.740;9.132;2023-12-20T03:46:52;0.20;;;0.20;;
8177;SDS011;4130;48.740;9.132;2023-12-20T03:49:20;0.00;;;0.00;;
8177;SDS011;4130;48.740;9.132;2023-12-20T03:51:47;0.10;;;0.10;;
8177;SDS011;4130;48.740;9.132;2023-12-20T03:54:14;0.10;;;0.10;;
8177;SDS011;4130;48.740;9.132;2023-12-20T03:56:41;0.10;;;0.10;;
8177;SDS011;4130;48.740;9.132;2023-12-20T03:59:07;0.07;;;0.07;;
8177;SDS011;4130;48.740;9.132;2023-12-20T04:01:34;0.00;;;0.00;;
8177;SDS011;4130;48.740;9.132;2023-12-20T04:04:01;0.00;;;0.00;;
8177;SDS011;4130;48.740;9.132;2023-12-20T04:06:29;0.00;;;0.00;;
8177;SDS011;4130;48.740;9.132;2023-12-20T04:08:57;0.07;;;0.07;;
8177;SDS011;4130;48.740;9.132;2023-12-20T04:11:24;0.27;;;0.20;;
8177;SDS011;4130;48.740;9.132;2023-12-20T04:13:51;0.00;;;0.00;;
8177;SDS011;4130;48.740;9.132;2023-12-20T04:16:18;0.00;;;0.00;;
8177;SDS011;4130;48.740;9.132;2023-12-20T04:18:44;0.00;;;0.00;;
8177;SDS011;4130;48.740;9.132;2023-12-20T04:21:11;0.00;;;0.00;;
8177;SDS011;4130;48.740;9.132;2023-12-20T04:23:39;0.00;;;0.00;;
8177;SDS011;4130;48.740;9.132;2023-12-20T04:26:06;0.00;;;0.00;;
8177;SDS011;4130;48.740;9.132;2023-12-20T04:28:39;0.00;;;0.00;;
8177;SDS011;4130;48.740;9.132;2023-12-20T04:31:07;0.23;;;0.10;;
8177;SDS011;4130;48.740;9.132;2023-12-20T04:33:33;0.20;;;0.20;;
8177;SDS011;4130;48.740;9.132;2023-12-20T04:36:00;0.10;;;0.10;;
8177;SDS011;4130;48.740;9.132;2023-12-20T04:38:27;0.27;;;0.10;;
8177;SDS011;4130;48.740;9.132;2023-12-20T04:40:55;0.00;;;0.00;;
8177;SDS011;4130;48.740;9.132;2023-12-20T04:43:22;0.07;;;0.07;;
8177;SDS011;4130;48.740;9.132;2023-12-20T04:45:51;1.37;;;0.20;;
8177;SDS011;4130;48.740;9.132;2023-12-20T04:48:18;0.10;;;0.10;;
8177;SDS011;4130;48.740;9.132;2023-12-20T04:50:45;0.60;;;0.10;;
8177;SDS011;4130;48.740;9.132;2023-12-20T04:53:14;0.10;;;0.00;;
8177;SDS011;4130;48.740;9.132;2023-12-20T04:55:40;0.10;;;0.00;;
8177;SDS011;4130;48.740;9.132;2023-12-20T04:58:09;0.20;;;0.20;;
8177;SDS011;4130;48.740;9.132;2023-12-20T05:00:36;0.20;;;0.20;;
8177;SDS011;4130;48.740;9.132;2023-12-20T05:06:03;0.00;;;0.00;;
8177;SDS011;4130;48.740;9.132;2023-12-20T05:08:30;0.43;;;0.43;;
8177;SDS011;4130;48.740;9.132;2023-12-20T05:10:58;0.20;;;0.20;;
8177;SDS011;4130;48.740;9.132;2023-12-20T05:13:26;0.20;;;0.20;;
8177;SDS011;4130;48.740;9.132;2023-12-20T05:15:54;0.10;;;0.10;;
8177;SDS011;4130;48.740;9.132;2023-12-20T05:18:21;0.10;;;0.10;;
8177;SDS011;4130;48.740;9.132;2023-12-20T05:20:50;0.20;;;0.20;;
8177;SDS011;4130;48.740;9.132;2023-12-20T05:23:23;0.20;;;0.20;;
8177;SDS011;4130;48.740;9.132;2023-12-20T05:25:53;0.33;;;0.27;;
8177;SDS011;4130;48.740;9.132;2023-12-20T05:28:20;0.20;;;0.20;;
8177;SDS011;4130;48.740;9.132;2023-12-20T05:30:55;0.20;;;0.20;;
8177;SDS011;4130;48.740;9.132;2023-12-20T05:33:22;0.20;;;0.20;;
8177;SDS011;4130;48.740;9.132;2023-12-20T05:35:52;0.63;;;0.40;;
8177;SDS011;4130;48.740;9.132;2023-12-20T05:38:21;0.10;;;0.10;;
8177;SDS011;4130;48.740;9.132;2023-12-20T05:40:48;0.20;;;0.20;;
8177;SDS011;4130;48.740;9.132;2023-12-20T05:43:15;0.40;;;0.33;;
8177;SDS011;4130;48.740;9.132;2023-12-20T05:45:44;0.30;;;0.20;;
8177;SDS011;4130;48.740;9.132;2023-12-20T05:48:17;0.63;;;0.30;;
8177;SDS011;4130;48.740;9.132;2023-12-20T05:50:44;0.30;;;0.30;;
8177;SDS011;4130;48.740;9.132;2023-12-20T05:53:11;0.43;;;0.30;;
8177;SDS011;4130;48.740;9.132;2023-12-20T05:55:49;0.00;;;0.00;;
8177;SDS011;4130;48.740;9.132;2023-12-20T05:58:16;0.33;;;0.30;;
8177;SDS011;4130;48.740;9.132;2023-12-20T06:00:42;0.60;;;0.50;;
8177;SDS011;4130;48.740;9.132;2023-12-20T06:03:09;0.40;;;0.40;;
8177;SDS011;4130;48.740;9.132;2023-12-20T06:05:42;0.67;;;0.37;;
8177;SDS011;4130;48.740;9.132;2023-12-20T06:08:09;0.30;;;0.30;;
8177;SDS011;4130;48.740;9.132;2023-12-20T06:10:40;0.20;;;0.20;;
8177;SDS011;4130;48.740;9.132;2023-12-20T06:13:07;0.87;;;0.30;;
8177;SDS011;4130;48.740;9.132;2023-12-20T06:15:34;0.23;;;0.23;;
8177;SDS011;4130;48.740;9.132;2023-12-20T06:18:01;1.70;;;0.30;;
8177;SDS011;4130;48.740;9.132;2023-12-20T06:20:28;0.40;;;0.23;;
8177;SDS011;4130;48.740;9.132;2023-12-20T06:22:57;0.47;;;0.47;;
8177;SDS011;4130;48.740;9.132;2023-12-20T06:25:23;0.60;;;0.60;;
8177;SDS011;4130;48.740;9.132;2023-12-20T06:27:58;0.20;;;0.20;;
8177;SDS011;4130;48.740;9.132;2023-12-20T06:30:27;0.40;;;0.40;;
8177;SDS011;4130;48.740;9.132;2023-12-20T06:32:54;0.40;;;0.40;;
8177;SDS011;4130;48.740;9.132;2023-12-20T06:35:22;0.20;;;0.20;;
8177;SDS011;4130;48.740;9.132;2023-12-20T06:37:49;0.40;;;0.40;;
8177;SDS011;4130;48.740;9.132;2023-12-20T06:40:18;0.50;;;0.50;;
8177;SDS011;4130;48.740;9.132;2023-12-20T06:42:45;0.60;;;0.60;;
8177;SDS011;4130;48.740;9.132;2023-12-20T06:45:12;0.53;;;0.53;;
8177;SDS011;4130;48.740;9.132;2023-12-20T06:47:41;0.47;;;0.47;;
8177;SDS011;4130;48.740;9.132;2023-12-20T06:50:08;0.60;;;0.60;;
8177;SDS011;4130;48.740;9.132;2023-12-20T06:52:37;0.63;;;0.50;;
8177;SDS011;4130;48.740;9.132;2023-12-20T06:55:06;1.03;;;0.60;;
8177;SDS011;4130;48.740;9.132;2023-12-20T06:57:34;0.30;;;0.30;;
8177;SDS011;4130;48.740;9.132;2023-12-20T07:00:01;0.47;;;0.27;;
8177;SDS011;4130;48.740;9.132;2023-12-20T07:02:28;0.33;;;0.33;;
8177;SDS011;4130;48.740;9.132;2023-12-20T07:04:55;0.40;;;0.40;;
8177;SDS011;4130;48.740;9.132;2023-12-20T07:07:22;1.57;;;0.60;;
8177;SDS011;4130;48.740;9.132;2023-12-20T07:09:50;0.37;;;0.37;;
8177;SDS011;4130;48.740;9.132;2023-12-20T07:12:17;0.33;;;0.33;;
8177;SDS011;4130;48.740;9.132;2023-12-20T07:14:45;0.47;;;0.43;;
8177;SDS011;4130;48.740;9.132;2023-12-20T07:17:12;0.50;;;0.50;;
8177;SDS011;4130;48.740;9.132;2023-12-20T07:19:40;0.57;;;0.53;;
8177;SDS011;4130;48.740;9.132;2023-12-20T07:22:07;0.50;;;0.50;;
8177;SDS011;4130;48.740;9.132;2023-12-20T07:24:34;0.50;;;0.50;;
8177;SDS011;4130;48.740;9.132;2023-12-20T07:27:02;0.50;;;0.50;;
8177;SDS011;4130;48.740;9.132;2023-12-20T07:29:29;0.83;;;0.73;;
8177;SDS011;4130;48.740;9.132;2023-12-20T07:31:57;0.43;;;0.43;;
8177;SDS011;4130;48.740;9.132;2023-12-20T07:34:28;1.03;;;1.03;;
8177;SDS011;4130;48.740;9.132;2023-12-20T07:36:55;1.87;;;1.20;;
8177;SDS011;4130;48.740;9.132;2023-12-20T07:39:22;1.00;;;1.00;;
8177;SDS011;4130;48.740;9.132;2023-12-20T07:41:49;1.40;;;1.30;;
8177;SDS011;4130;48.740;9.132;2023-12-20T07:44:15;1.30;;;1.20;;
8177;SDS011;4130;48.740;9.132;2023-12-20T07:46:42;1.50;;;1.40;;
8177;SDS011;4130;48.740;9.132;2023-12-20T07:49:10;1.30;;;1.30;;
8177;SDS011;4130;48.740;9.132;2023-12-20T07:51:38;3.23;;;1.40;;
8177;SDS011;4130;48.740;9.132;2023-12-20T07:54:05;1.73;;;1.63;;
8177;SDS011;4130;48.740;9.132;2023-12-20T07:56:33;1.50;;;1.40;;
8177;SDS011;4130;48.740;9.132;2023-12-20T07:59:00;3.70;;;1.50;;
8177;SDS011;4130;48.740;9.132;2023-12-20T08:01:26;2.00;;;1.60;;
8177;SDS011;4130;48.740;9.132;2023-12-20T08:03:53;1.93;;;1.70;;
8177;SDS011;4130;48.740;9.132;2023-12-20T08:06:21;2.03;;;1.70;;
8177;SDS011;4130;48.740;9.132;2023-12-20T08:08:49;1.93;;;1.63;;
8177;SDS011;4130;48.740;9.132;2023-12-20T08:11:17;2.73;;;2.10;;
8177;SDS011;4130;48.740;9.132;2023-12-20T08:13:44;2.40;;;2.20;;
8177;SDS011;4130;48.740;9.132;2023-12-20T08:16:11;1.90;;;1.80;;
8177;SDS011;4130;48.740;9.132;2023-12-20T08:18:38;1.93;;;1.73;;
8177;SDS011;4130;48.740;9.132;2023-12-20T08:21:06;1.80;;;1.70;;
8177;SDS011;4130;48.740;9.132;2023-12-20T08:23:35;2.93;;;2.00;;
8177;SDS011;4130;48.740;9.132;2023-12-20T08:26:03;2.57;;;1.90;;
8177;SDS011;4130;48.740;9.132;2023-12-20T08:28:31;2.80;;;1.87;;
8177;SDS011;4130;48.740;9.132;2023-12-20T08:30:58;3.20;;;1.60;;
8177;SDS011;4130;48.740;9.132;2023-12-20T08:33:24;1.80;;;1.70;;
8177;SDS011;4130;48.740;9.132;2023-12-20T08:35:51;4.00;;;2.10;;
8177;SDS011;4130;48.740;9.132;2023-12-20T08:38:18;2.33;;;1.63;;
8177;SDS011;4130;48.740;9.132;2023-12-20T08:40:46;2.20;;;2.00;;
8177;SDS011;4130;48.740;9.132;2023-12-20T08:43:14;2.47;;;2.10;;
8177;SDS011;4130;48.740;9.132;2023-12-20T08:45:41;2.77;;;2.23;;
8177;SDS011;4130;48.740;9.132;2023-12-20T08:48:07;2.00;;;1.80;;
8177;SDS011;4130;48.740;9.132;2023-12-20T08:50:34;2.00;;;1.90;;
8177;SDS011;4130;48.740;9.132;2023-12-20T08:53:01;2.07;;;1.93;;
8177;SDS011;4130;48.740;9.132;2023-12-20T08:55:28;2.67;;;2.10;;
8177;SDS011;4130;48.740;9.132;2023-12-20T08:57:58;2.10;;;2.00;;
8177;SDS011;4130;48.740;9.132;2023-12-20T09:00:25;2.33;;;1.97;;
8177;SDS011;4130;48.740;9.132;2023-12-20T09:02:52;2.00;;;1.90;;
8177;SDS011;4130;48.740;9.132;2023-12-20T09:05:20;2.20;;;2.00;;
8177;SDS011;4130;48.740;9.132;2023-12-20T09:07:47;3.37;;;1.80;;
8177;SDS011;4130;48.740;9.132;2023-12-20T09:10:14;1.93;;;1.63;;
8177;SDS011;4130;48.740;9.132;2023-12-20T09:12:41;3.40;;;1.70;;
8177;SDS011;4130;48.740;9.132;2023-12-20T09:15:09;2.00;;;1.80;;
8177;SDS011;4130;48.740;9.132;2023-12-20T09:17:36;2.33;;;1.87;;
8177;SDS011;4130;48.740;9.132;2023-12-20T09:22:34;2.30;;;1.77;;
8177;SDS011;4130;48.740;9.132;2023-12-20T09:25:03;2.17;;;1.90;;
8177;SDS011;4130;48.740;9.132;2023-12-20T09:27:31;2.37;;;1.80;;
8177;SDS011;4130;48.740;9.132;2023-12-20T09:29:57;4.20;;;1.70;;
8177;SDS011;4130;48.740;9.132;2023-12-20T09:32:26;2.63;;;1.70;;
8177;SDS011;4130;48.740;9.132;2023-12-20T09:34:53;1.63;;;1.40;;
8177;SDS011;4130;48.740;9.132;2023-12-20T09:37:20;3.13;;;1.50;;
8177;SDS011;4130;48.740;9.132;2023-12-20T09:39:46;1.50;;;1.40;;
8177;SDS011;4130;48.740;9.132;2023-12-20T09:42:15;2.53;;;1.40;;
8177;SDS011;4130;48.740;9.132;2023-12-20T09:44:50;3.27;;;1.57;;
8177;SDS011;4130;48.740;9.132;2023-12-20T09:47:17;1.37;;;1.20;;
8177;SDS011;4130;48.740;9.132;2023-12-20T09:49:50;3.87;;;1.30;;
8177;SDS011;4130;48.740;9.132;2023-12-20T09:52:17;2.23;;;1.43;;
8177;SDS011;4130;48.740;9.132;2023-12-20T09:54:45;0.90;;;0.90;;
8177;SDS011;4130;48.740;9.132;2023-12-20T09:57:15;1.43;;;1.10;;
8177;SDS011;4130;48.740;9.132;2023-12-20T09:59:42;1.30;;;1.20;;
8177;SDS011;4130;48.740;9.132;2023-12-20T10:02:11;1.40;;;1.30;;
8177;SDS011;4130;48.740;9.132;2023-12-20T10:04:40;3.13;;;1.43;;
8177;SDS011;4130;48.740;9.132;2023-12-20T10:07:15;2.67;;;1.33;;
8177;SDS011;4130;48.740;9.132;2023-12-20T10:09:42;1.30;;;1.20;;
8177;SDS011;4130;48.740;9.132;2023-12-20T10:12:10;2.80;;;1.20;;
8177;SDS011;4130;48.740;9.132;2023-12-20T10:14:38;2.90;;;1.33;;
8177;SDS011;4130;48.740;9.132;2023-12-20T10:17:05;2.67;;;1.07;;
8177;SDS011;4130;48.740;9.132;2023-12-20T10:19:32;1.23;;;1.00;;
8177;SDS011;4130;48.740;9.132;2023-12-20T10:21:59;3.30;;;0.90;;
8177;SDS011;4130;48.740;9.132;2023-12-20T10:27:50;1.30;;;1.00;;
8177;SDS011;4130;48.740;9.132;2023-12-20T10:30:35;2.40;;;1.07;;
8177;SDS011;4130;48.740;9.132;2023-12-20T10:33:02;1.37;;;0.90;;
8177;SDS011;4130;48.740;9.132;2023-12-20T10:35:31;1.03;;;0.90;;
8177;SDS011;4130;48.740;9.132;2023-12-20T10:37:58;1.90;;;1.00;;
8177;SDS011;4130;48.740;9.132;2023-12-20T10:40:30;3.27;;;1.10;;
8177;SDS011;4130;48.740;9.132;2023-12-20T10:42:58;1.77;;;1.40;;
8177;SDS011;4130;48.740;9.132;2023-12-20T10:45:27;1.10;;;1.10;;
8177;SDS011;4130;48.740;9.132;2023-12-20T10:47:54;2.17;;;1.43;;
8177;SDS011;4130;48.740;9.132;2023-12-20T10:50:22;1.00;;;1.00;;
8177;SDS011;4130;48.740;9.132;2023-12-20T10:55:59;3.47;;;1.10;;
8177;SDS011;4130;48.740;9.132;2023-12-20T10:58:30;1.87;;;1.00;;
8177;SDS011;4130;48.740;9.132;2023-12-20T11:00:59;3.50;;;1.17;;
8177;SDS011;4130;48.740;9.132;2023-12-20T11:03:27;3.53;;;0.93;;
8177;SDS011;4130;48.740;9.132;2023-12-20T11:05:59;1.20;;;1.10;;
8177;SDS011;4130;48.740;9.132;2023-12-20T11:08:32;3.00;;;1.10;;
8177;SDS011;4130;48.740;9.132;2023-12-20T11:11:06;3.23;;;1.10;;
8177;SDS011;4130;48.740;9.132;2023-12-20T11:13:40;5.30;;;1.43;;
8177;SDS011;4130;48.740;9.132;2023-12-20T11:16:10;2.30;;;1.20;;
8177;SDS011;4130;48.740;9.132;2023-12-20T11:18:38;1.13;;;1.10;;
8177;SDS011;4130;48.740;9.132;2023-12-20T11:21:07;1.60;;;1.10;;
8177;SDS011;4130;48.740;9.132;2023-12-20T11:23:35;1.17;;;0.97;;
8177;SDS011;4130;48.740;9.132;2023-12-20T11:26:02;1.20;;;1.10;;
8177;SDS011;4130;48.740;9.132;2023-12-20T11:28:29;0.80;;;0.80;;
8177;SDS011;4130;48.740;9.132;2023-12-20T11:30:57;1.20;;;1.10;;
8177;SDS011;4130;48.740;9.132;2023-12-20T11:33:26;2.83;;;1.47;;
8177;SDS011;4130;48.740;9.132;2023-12-20T11:35:56;2.30;;;1.00;;
8177;SDS011;4130;48.740;9.132;2023-12-20T11:38:26;3.33;;;1.10;;
8177;SDS011;4130;48.740;9.132;2023-12-20T11:41:02;1.87;;;0.77;;
8177;SDS011;4130;48.740;9.132;2023-12-20T11:43:32;1.27;;;1.00;;
8177;SDS011;4130;48.740;9.132;2023-12-20T11:46:04;2.53;;;1.03;;
8177;SDS011;4130;48.740;9.132;2023-12-20T11:48:32;2.57;;;0.87;;
8177;SDS011;4130;48.740;9.132;2023-12-20T11:51:00;0.93;;;0.90;;
8177;SDS011;4130;48.740;9.132;2023-12-20T11:53:28;1.63;;;1.00;;
8177;SDS011;4130;48.740;9.132;2023-12-20T11:59:25;1.30;;;1.07;;
8177;SDS011;4130;48.740;9.132;2023-12-20T12:01:53;2.23;;;1.33;;
8177;SDS011;4130;48.740;9.132;2023-12-20T12:04:25;3.27;;;1.30;;
8177;SDS011;4130;48.740;9.132;2023-12-20T12:06:53;2.60;;;1.00;;
8177;SDS011;4130;48.740;9.132;2023-12-20T12:09:20;2.77;;;1.13;;
8177;SDS011;4130;48.740;9.132;2023-12-20T12:11:47;2.03;;;1.10;;
8177;SDS011;4130;48.740;9.132;2023-12-20T12:14:14;1.57;;;1.00;;
8177;SDS011;4130;48.740;9.132;2023-12-20T12:16:44;3.27;;;1.00;;
8177;SDS011;4130;48.740;9.132;2023-12-20T12:19:21;2.77;;;1.60;;
8177;SDS011;4130;48.740;9.132;2023-12-20T12:21:49;7.60;;;2.00;;
8177;SDS011;4130;48.740;9.132;2023-12-20T12:24:19;2.60;;;1.50;;
8177;SDS011;4130;48.740;9.132;2023-12-20T12:26:49;4.60;;;1.70;;
8177;SDS011;4130;48.740;9.132;2023-12-20T12:29:17;6.17;;;1.30;;
8177;SDS011;4130;48.740;9.132;2023-12-20T12:31:44;2.60;;;1.20;;
8177;SDS011;4130;48.740;9.132;2023-12-20T12:34:11;6.97;;;2.20;;
8177;SDS011;4130;48.740;9.132;2023-12-20T12:36:42;5.33;;;2.47;;
8177;SDS011;4130;48.740;9.132;2023-12-20T12:39:11;4.40;;;1.87;;
8177;SDS011;4130;48.740;9.132;2023-12-20T12:44:14;5.23;;;1.30;;
8177;SDS011;4130;48.740;9.132;2023-12-20T12:46:41;3.00;;;1.20;;
8177;SDS011;4130;48.740;9.132;2023-12-20T12:49:08;5.07;;;1.77;;
8177;SDS011;4130;48.740;9.132;2023-12-20T12:51:35;2.40;;;1.33;;
8177;SDS011;4130;48.740;9.132;2023-12-20T12:54:04;2.60;;;1.40;;
8177;SDS011;4130;48.740;9.132;2023-12-20T12:56:31;3.97;;;1.90;;
8177;SDS011;4130;48.740;9.132;2023-12-20T12:59:00;3.53;;;1.50;;
8177;SDS011;4130;48.740;9.132;2023-12-20T13:01:28;2.87;;;1.43;;
8177;SDS011;4130;48.740;9.132;2023-12-20T13:03:54;2.87;;;0.93;;
8177;SDS011;4130;48.740;9.132;2023-12-20T13:06:21;1.60;;;1.30;;
8177;SDS011;4130;48.740;9.132;2023-12-20T13:08:48;3.73;;;1.50;;
8177;SDS011;4130;48.740;9.132;2023-12-20T13:11:17;1.90;;;1.03;;
8177;SDS011;4130;48.740;9.132;2023-12-20T13:13:44;1.93;;;1.40;;
8177;SDS011;4130;48.740;9.132;2023-12-20T13:16:14;2.77;;;1.03;;
8177;SDS011;4130;48.740;9.132;2023-12-20T13:18:41;2.37;;;1.40;;
8177;SDS011;4130;48.740;9.132;2023-12-20T13:21:10;2.47;;;1.47;;
8177;SDS011;4130;48.740;9.132;2023-12-20T13:23:37;5.47;;;1.83;;
8177;SDS011;4130;48.740;9.132;2023-12-20T13:26:04;2.43;;;1.30;;
8177;SDS011;4130;48.740;9.132;2023-12-20T13:28:33;2.23;;;1.20;;
8177;SDS011;4130;48.740;9.132;2023-12-20T13:31:00;1.27;;;1.07;;
8177;SDS011;4130;48.740;9.132;2023-12-20T13:33:28;1.23;;;0.97;;
8177;SDS011;4130;48.740;9.132;2023-12-20T13:35:55;1.77;;;1.33;;
8177;SDS011;4130;48.740;9.132;2023-12-20T13:38:23;2.13;;;1.03;;
8177;SDS011;4130;48.740;9.132;2023-12-20T13:40:50;2.27;;;1.13;;
8177;SDS011;4130;48.740;9.132;2023-12-20T13:43:17;3.70;;;1.33;;
8177;SDS011;4130;48.740;9.132;2023-12-20T13:45:47;1.67;;;1.17;;
8177;SDS011;4130;48.740;9.132;2023-12-20T13:48:15;5.80;;;1.57;;
8177;SDS011;4130;48.740;9.132;2023-12-20T13:50:42;1.60;;;0.90;;
8177;SDS011;4130;48.740;9.132;2023-12-20T13:55:43;2.83;;;0.70;;
8177;SDS011;4130;48.740;9.132;2023-12-20T13:58:09;1.97;;;0.83;;
8177;SDS011;4130;48.740;9.132;2023-12-20T14:00:36;1.40;;;1.10;;
8177;SDS011;4130;48.740;9.132;2023-12-20T14:03:04;1.53;;;1.03;;
8177;SDS011;4130;48.740;9.132;2023-12-20T14:05:32;0.83;;;0.80;;
8177;SDS011;4130;48.740;9.132;2023-12-20T14:07:59;1.80;;;0.83;;
8177;SDS011;4130;48.740;9.132;2023-12-20T14:10:26;1.43;;;1.03;;
8177;SDS011;4130;48.740;9.132;2023-12-20T14:12:53;2.77;;;1.00;;
8177;SDS011;4130;48.740;9.132;2023-12-20T14:15:20;2.90;;;1.50;;
8177;SDS011;4130;48.740;9.132;2023-12-20T14:17:50;1.20;;;0.93;;
8177;SDS011;4130;48.740;9.132;2023-12-20T14:20:18;1.43;;;1.10;;
8177;SDS011;4130;48.740;9.132;2023-12-20T14:22:46;4.37;;;0.93;;
8177;SDS011;4130;48.740;9.132;2023-12-20T14:25:13;2.03;;;0.83;;
8177;SDS011;4130;48.740;9.132;2023-12-20T14:27:41;3.53;;;1.60;;
8177;SDS011;4130;48.740;9.132;2023-12-20T14:30:09;3.23;;;1.33;;
8177;SDS011;4130;48.740;9.132;2023-12-20T14:32:39;1.30;;;1.10;;
8177;SDS011;4130;48.740;9.132;2023-12-20T14:35:06;1.53;;;1.10;;
8177;SDS011;4130;48.740;9.132;2023-12-20T14:37:35;1.90;;;1.10;;
8177;SDS011;4130;48.740;9.132;2023-12-20T14:40:04;2.97;;;1.33;;
8177;SDS011;4130;48.740;9.132;2023-12-20T14:42:35;1.43;;;0.97;;
8177;SDS011;4130;48.740;9.132;2023-12-20T14:45:03;1.53;;;1.10;;
8177;SDS011;4130;48.740;9.132;2023-12-20T14:47:30;3.20;;;1.20;;
8177;SDS011;4130;48.740;9.132;2023-12-20T14:49:57;3.07;;;1.00;;
8177;SDS011;4130;48.740;9.132;2023-12-20T14:52:24;1.27;;;0.80;;
8177;SDS011;4130;48.740;9.132;2023-12-20T14:54:52;2.77;;;1.40;;
8177;SDS011;4130;48.740;9.132;2023-12-20T14:57:19;1.70;;;0.83;;
8177;SDS011;4130;48.740;9.132;2023-12-20T14:59:46;2.70;;;1.10;;
8177;SDS011;4130;48.740;9.132;2023-12-20T15:02:13;1.73;;;1.10;;
8177;SDS011;4130;48.740;9.132;2023-12-20T15:04:48;1.93;;;1.47;;
8177;SDS011;4130;48.740;9.132;2023-12-20T15:07:16;3.97;;;1.70;;
8177;SDS011;4130;48.740;9.132;2023-12-20T15:43:33;2.73;;;1.10;;
8177;SDS011;4130;48.740;9.132;2023-12-20T15:59:36;3.90;;;1.87;;
8177;SDS011;4130;48.740;9.132;2023-12-20T16:02:03;3.17;;;1.40;;
8177;SDS011;4130;48.740;9.132;2023-12-20T16:04:30;1.97;;;1.43;;
8177;SDS011;4130;48.740;9.132;2023-12-20T16:07:00;3.13;;;1.57;;
8177;SDS011;4130;48.740;9.132;2023-12-20T16:09:45;3.53;;;1.30;;
8177;SDS011;4130;48.740;9.132;2023-12-20T16:12:12;2.63;;;1.63;;
8177;SDS011;4130;48.740;9.132;2023-12-20T16:14:41;3.03;;;1.73;;
8177;SDS011;4130;48.740;9.132;2023-12-20T16:17:08;1.50;;;1.40;;
8177;SDS011;4130;48.740;9.132;2023-12-20T16:19:35;3.07;;;1.30;;
8177;SDS011;4130;48.740;9.132;2023-12-20T16:22:02;5.10;;;1.53;;
8177;SDS011;4130;48.740;9.132;2023-12-20T16:24:30;1.43;;;1.23;;
8177;SDS011;4130;48.740;9.132;2023-12-20T16:27:02;3.40;;;1.30;;
8177;SDS011;4130;48.740;9.132;2023-12-20T16:29:34;2.00;;;1.50;;
8177;SDS011;4130;48.740;9.132;2023-12-20T16:32:03;3.37;;;1.70;;